sensor_id;sensor_type;location;lat;lon;timestamp;temperature;humidity
22682;DHT22;11508;50.856;4.380;2023-05-02T00:01:40;13.00;36.20
22682;DHT22;11508;50.856;4.380;2023-05-02T00:04:06;13.10;33.30
22682;DHT22;11508;50.856;4.380;2023-05-02T00:06:32;13.20;27.90
22682;DHT22;11508;50.856;4.380;2023-05-02T00:08:58;12.90;33.90
22682;DHT22;11508;50.856;4.380;2023-05-02T00:11:23;13.00;46.60
22682;DHT22;11508;50.856;4.380;2023-05-02T00:13:49;13.10;43.70
22682;DHT22;11508;50.856;4.380;2023-05-02T00:16:15;13.10;35.00
22682;DHT22;11508;50.856;4.380;2023-05-02T00:18:42;13.00;40.40
22682;DHT22;11508;50.856;4.380;2023-05-02T00:21:08;13.00;39.70
22682;DHT22;11508;50.856;4.380;2023-05-02T00:23:33;13.10;35.50
22682;DHT22;11508;50.856;4.380;2023-05-02T00:25:59;13.30;30.70
22682;DHT22;11508;50.856;4.380;2023-05-02T00:28:25;13.30;18.70
22682;DHT22;11508;50.856;4.380;2023-05-02T00:30:51;13.30;21.00
22682;DHT22;11508;50.856;4.380;2023-05-02T00:33:17;13.00;27.40
22682;DHT22;11508;50.856;4.380;2023-05-02T00:35:43;13.20;27.20
22682;DHT22;11508;50.856;4.380;2023-05-02T00:38:09;13.20;28.20
22682;DHT22;11508;50.856;4.380;2023-05-02T00:40:42;13.20;25.40
22682;DHT22;11508;50.856;4.380;2023-05-02T00:43:09;13.40;16.40
22682;DHT22;11508;50.856;4.380;2023-05-02T00:45:35;13.60;9.80
22682;DHT22;11508;50.856;4.380;2023-05-02T00:48:01;13.60;2.20
22682;DHT22;11508;50.856;4.380;2023-05-02T00:50:28;13.50;6.00
22682;DHT22;11508;50.856;4.380;2023-05-02T00:52:55;13.40;28.00
22682;DHT22;11508;50.856;4.380;2023-05-02T00:55:21;13.60;31.30
22682;DHT22;11508;50.856;4.380;2023-05-02T00:57:47;13.50;31.70
22682;DHT22;11508;50.856;4.380;2023-05-02T01:00:14;13.80;27.00
22682;DHT22;11508;50.856;4.380;2023-05-02T01:02:48;13.80;19.00
22682;DHT22;11508;50.856;4.380;2023-05-02T01:05:23;13.80;12.60
22682;DHT22;11508;50.856;4.380;2023-05-02T01:11:04;14.00;7.80
22682;DHT22;11508;50.856;4.380;2023-05-02T01:13:33;13.70;8.90
22682;DHT22;11508;50.856;4.380;2023-05-02T01:16:01;13.50;10.00
22682;DHT22;11508;50.856;4.380;2023-05-02T01:18:34;13.40;26.90
22682;DHT22;11508;50.856;4.380;2023-05-02T01:21:05;13.30;29.10
22682;DHT22;11508;50.856;4.380;2023-05-02T01:29:13;13.10;52.10
22682;DHT22;11508;50.856;4.380;2023-05-02T01:31:47;12.60;74.90
22682;DHT22;11508;50.856;4.380;2023-05-02T01:34:13;12.70;85.60
22682;DHT22;11508;50.856;4.380;2023-05-02T01:36:44;12.60;66.60
22682;DHT22;11508;50.856;4.380;2023-05-02T01:39:18;12.50;95.00
22682;DHT22;11508;50.856;4.380;2023-05-02T01:41:47;12.50;95.10
22682;DHT22;11508;50.856;4.380;2023-05-02T01:44:14;12.50;94.70
22682;DHT22;11508;50.856;4.380;2023-05-02T01:46:42;12.40;91.70
22682;DHT22;11508;50.856;4.380;2023-05-02T01:49:09;12.50;93.80
22682;DHT22;11508;50.856;4.380;2023-05-02T01:51:39;12.50;93.00
22682;DHT22;11508;50.856;4.380;2023-05-02T01:54:09;12.70;72.70
22682;DHT22;11508;50.856;4.380;2023-05-02T01:56:37;12.80;74.70
22682;DHT22;11508;50.856;4.380;2023-05-02T01:59:16;12.80;54.70
22682;DHT22;11508;50.856;4.380;2023-05-02T02:01:43;12.50;62.40
22682;DHT22;11508;50.856;4.380;2023-05-02T02:04:10;12.40;91.20
22682;DHT22;11508;50.856;4.380;2023-05-02T02:06:38;12.10;99.90
22682;DHT22;11508;50.856;4.380;2023-05-02T02:09:07;12.40;99.90
22682;DHT22;11508;50.856;4.380;2023-05-02T02:11:52;12.70;84.60
22682;DHT22;11508;50.856;4.380;2023-05-02T02:14:21;12.70;71.60
22682;DHT22;11508;50.856;4.380;2023-05-02T02:16:53;12.60;72.80
22682;DHT22;11508;50.856;4.380;2023-05-02T02:19:21;12.70;73.30
22682;DHT22;11508;50.856;4.380;2023-05-02T02:21:48;12.70;72.40
22682;DHT22;11508;50.856;4.380;2023-05-02T02:24:16;12.60;67.90
22682;DHT22;11508;50.856;4.380;2023-05-02T02:26:43;12.70;75.90
22682;DHT22;11508;50.856;4.380;2023-05-02T02:29:08;13.00;54.70
22682;DHT22;11508;50.856;4.380;2023-05-02T02:31:34;13.10;29.20
22682;DHT22;11508;50.856;4.380;2023-05-02T02:34:01;13.10;28.30
22682;DHT22;11508;50.856;4.380;2023-05-02T02:36:35;13.10;31.90
22682;DHT22;11508;50.856;4.380;2023-05-02T02:39:23;13.20;23.70
22682;DHT22;11508;50.856;4.380;2023-05-02T02:44:53;12.90;40.70
22682;DHT22;11508;50.856;4.380;2023-05-02T02:47:48;13.00;20.90
22682;DHT22;11508;50.856;4.380;2023-05-02T02:55:37;12.60;56.20
22682;DHT22;11508;50.856;4.380;2023-05-02T03:01:03;12.30;48.90
22682;DHT22;11508;50.856;4.380;2023-05-02T03:03:31;12.30;66.20
22682;DHT22;11508;50.856;4.380;2023-05-02T03:05:58;12.30;71.80
22682;DHT22;11508;50.856;4.380;2023-05-02T03:08:25;12.40;70.00
22682;DHT22;11508;50.856;4.380;2023-05-02T03:10:50;12.40;66.50
22682;DHT22;11508;50.856;4.380;2023-05-02T03:13:16;12.70;50.50
22682;DHT22;11508;50.856;4.380;2023-05-02T03:18:08;12.20;69.10
22682;DHT22;11508;50.856;4.380;2023-05-02T03:20:33;12.00;75.00
22682;DHT22;11508;50.856;4.380;2023-05-02T03:25:25;11.60;96.10
22682;DHT22;11508;50.856;4.380;2023-05-02T03:27:52;11.50;99.90
22682;DHT22;11508;50.856;4.380;2023-05-02T03:30:18;11.60;99.90
22682;DHT22;11508;50.856;4.380;2023-05-02T03:32:44;12.00;95.20
22682;DHT22;11508;50.856;4.380;2023-05-02T03:35:09;11.90;89.60
22682;DHT22;11508;50.856;4.380;2023-05-02T03:37:35;12.10;74.80
22682;DHT22;11508;50.856;4.380;2023-05-02T03:40:01;12.20;63.80
22682;DHT22;11508;50.856;4.380;2023-05-02T03:42:27;11.80;74.50
22682;DHT22;11508;50.856;4.380;2023-05-02T03:44:52;11.60;92.70
22682;DHT22;11508;50.856;4.380;2023-05-02T03:47:18;11.30;99.90
22682;DHT22;11508;50.856;4.380;2023-05-02T03:49:45;11.30;99.90
22682;DHT22;11508;50.856;4.380;2023-05-02T03:52:11;11.40;99.90
22682;DHT22;11508;50.856;4.380;2023-05-02T03:54:36;11.80;99.90
22682;DHT22;11508;50.856;4.380;2023-05-02T03:57:02;12.00;66.60
22682;DHT22;11508;50.856;4.380;2023-05-02T03:59:32;12.00;64.50
22682;DHT22;11508;50.856;4.380;2023-05-02T04:01:58;11.90;79.40
22682;DHT22;11508;50.856;4.380;2023-05-02T04:04:24;11.90;72.20
22682;DHT22;11508;50.856;4.380;2023-05-02T04:06:49;11.60;90.60
22682;DHT22;11508;50.856;4.380;2023-05-02T04:09:15;12.10;85.50
22682;DHT22;11508;50.856;4.380;2023-05-02T04:11:41;12.00;83.20
22682;DHT22;11508;50.856;4.380;2023-05-02T04:14:06;12.20;62.90
22682;DHT22;11508;50.856;4.380;2023-05-02T04:16:32;12.20;49.10
22682;DHT22;11508;50.856;4.380;2023-05-02T04:18:58;12.30;46.90
22682;DHT22;11508;50.856;4.380;2023-05-02T04:21:23;12.20;49.70
22682;DHT22;11508;50.856;4.380;2023-05-02T04:23:49;12.30;56.90
22682;DHT22;11508;50.856;4.380;2023-05-02T04:26:15;12.20;55.80
22682;DHT22;11508;50.856;4.380;2023-05-02T04:28:41;12.20;55.40
22682;DHT22;11508;50.856;4.380;2023-05-02T04:31:07;12.30;50.50
22682;DHT22;11508;50.856;4.380;2023-05-02T04:33:33;12.30;49.20
22682;DHT22;11508;50.856;4.380;2023-05-02T04:35:59;12.30;48.60
22682;DHT22;11508;50.856;4.380;2023-05-02T04:38:25;12.10;50.30
22682;DHT22;11508;50.856;4.380;2023-05-02T04:40:50;12.20;63.60
22682;DHT22;11508;50.856;4.380;2023-05-02T04:43:19;12.30;61.30
22682;DHT22;11508;50.856;4.380;2023-05-02T04:45:44;12.40;60.80
22682;DHT22;11508;50.856;4.380;2023-05-02T04:48:10;12.60;39.50
22682;DHT22;11508;50.856;4.380;2023-05-02T04:50:36;12.70;26.70
22682;DHT22;11508;50.856;4.380;2023-05-02T04:53:03;12.70;17.20
22682;DHT22;11508;50.856;4.380;2023-05-02T04:57:55;12.50;29.70
22682;DHT22;11508;50.856;4.380;2023-05-02T05:00:20;12.70;31.20
22682;DHT22;11508;50.856;4.380;2023-05-02T05:02:46;12.40;27.90
22682;DHT22;11508;50.856;4.380;2023-05-02T05:05:13;12.80;25.20
22682;DHT22;11508;50.856;4.380;2023-05-02T05:07:39;12.80;22.00
22682;DHT22;11508;50.856;4.380;2023-05-02T05:12:32;12.20;46.00
22682;DHT22;11508;50.856;4.380;2023-05-02T05:14:58;12.30;69.00
22682;DHT22;11508;50.856;4.380;2023-05-02T05:17:23;12.70;36.80
22682;DHT22;11508;50.856;4.380;2023-05-02T05:19:49;12.60;28.10
22682;DHT22;11508;50.856;4.380;2023-05-02T05:22:16;12.50;43.10
22682;DHT22;11508;50.856;4.380;2023-05-02T05:24:42;12.70;35.30
22682;DHT22;11508;50.856;4.380;2023-05-02T05:27:07;12.60;27.00
22682;DHT22;11508;50.856;4.380;2023-05-02T05:29:34;12.60;33.30
22682;DHT22;11508;50.856;4.380;2023-05-02T05:32:00;12.60;24.70
22682;DHT22;11508;50.856;4.380;2023-05-02T05:34:26;12.40;26.80
22682;DHT22;11508;50.856;4.380;2023-05-02T05:36:51;12.40;38.00
22682;DHT22;11508;50.856;4.380;2023-05-02T05:39:17;12.10;58.50
22682;DHT22;11508;50.856;4.380;2023-05-02T05:41:43;12.10;66.60
22682;DHT22;11508;50.856;4.380;2023-05-02T05:44:08;12.50;47.70
22682;DHT22;11508;50.856;4.380;2023-05-02T05:46:34;12.60;34.60
22682;DHT22;11508;50.856;4.380;2023-05-02T05:49:00;12.70;29.30
22682;DHT22;11508;50.856;4.380;2023-05-02T05:51:25;12.70;12.10
22682;DHT22;11508;50.856;4.380;2023-05-02T05:53:52;12.90;12.60
22682;DHT22;11508;50.856;4.380;2023-05-02T05:56:18;12.70;11.80
22682;DHT22;11508;50.856;4.380;2023-05-02T05:58:44;12.80;17.60
22682;DHT22;11508;50.856;4.380;2023-05-02T06:01:09;13.00;4.40
22682;DHT22;11508;50.856;4.380;2023-05-02T06:03:35;12.80;1.00
22682;DHT22;11508;50.856;4.380;2023-05-02T06:06:01;12.80;1.00
22682;DHT22;11508;50.856;4.380;2023-05-02T06:10:52;12.80;3.80
22682;DHT22;11508;50.856;4.380;2023-05-02T06:13:18;12.80;7.40
22682;DHT22;11508;50.856;4.380;2023-05-02T06:15:44;12.90;1.00
22682;DHT22;11508;50.856;4.380;2023-05-02T06:18:10;12.90;1.00
22682;DHT22;11508;50.856;4.380;2023-05-02T06:20:36;12.80;1.00
22682;DHT22;11508;50.856;4.380;2023-05-02T06:23:01;12.90;1.00
22682;DHT22;11508;50.856;4.380;2023-05-02T06:25:27;12.80;1.00
22682;DHT22;11508;50.856;4.380;2023-05-02T06:27:53;12.70;1.00
22682;DHT22;11508;50.856;4.380;2023-05-02T06:30:19;13.00;1.00
22682;DHT22;11508;50.856;4.380;2023-05-02T06:32:45;13.00;1.00
22682;DHT22;11508;50.856;4.380;2023-05-02T06:35:11;13.30;1.00
22682;DHT22;11508;50.856;4.380;2023-05-02T06:37:36;13.40;1.00
22682;DHT22;11508;50.856;4.380;2023-05-02T06:40:02;13.40;1.00
22682;DHT22;11508;50.856;4.380;2023-05-02T06:42:28;13.30;1.00
22682;DHT22;11508;50.856;4.380;2023-05-02T06:44:54;13.40;1.00
22682;DHT22;11508;50.856;4.380;2023-05-02T06:47:20;13.40;1.00
22682;DHT22;11508;50.856;4.380;2023-05-02T06:49:51;13.40;1.00
22682;DHT22;11508;50.856;4.380;2023-05-02T06:52:18;13.50;1.00
22682;DHT22;11508;50.856;4.380;2023-05-02T06:54:43;13.40;1.00
22682;DHT22;11508;50.856;4.380;2023-05-02T06:57:09;13.60;1.00
22682;DHT22;11508;50.856;4.380;2023-05-02T06:59:35;13.80;1.00
22682;DHT22;11508;50.856;4.380;2023-05-02T07:02:01;14.10;1.00
22682;DHT22;11508;50.856;4.380;2023-05-02T07:04:27;14.10;1.00
22682;DHT22;11508;50.856;4.380;2023-05-02T07:06:52;14.30;1.00
22682;DHT22;11508;50.856;4.380;2023-05-02T07:09:18;14.40;1.00
22682;DHT22;11508;50.856;4.380;2023-05-02T07:11:44;14.30;1.00
22682;DHT22;11508;50.856;4.380;2023-05-02T07:16:35;14.30;1.00
22682;DHT22;11508;50.856;4.380;2023-05-02T07:19:01;14.50;1.00
22682;DHT22;11508;50.856;4.380;2023-05-02T07:21:29;14.70;1.00
22682;DHT22;11508;50.856;4.380;2023-05-02T07:23:54;14.60;1.00
22682;DHT22;11508;50.856;4.380;2023-05-02T07:26:22;14.90;99.90
22682;DHT22;11508;50.856;4.380;2023-05-02T07:28:48;15.10;99.90
22682;DHT22;11508;50.856;4.380;2023-05-02T07:31:14;15.00;99.90
22682;DHT22;11508;50.856;4.380;2023-05-02T07:33:40;15.10;99.90
22682;DHT22;11508;50.856;4.380;2023-05-02T07:36:05;15.30;99.90
22682;DHT22;11508;50.856;4.380;2023-05-02T07:38:31;15.30;99.90
22682;DHT22;11508;50.856;4.380;2023-05-02T07:43:23;16.50;99.90
22682;DHT22;11508;50.856;4.380;2023-05-02T07:45:49;17.20;99.90
22682;DHT22;11508;50.856;4.380;2023-05-02T07:48:15;17.40;99.90
22682;DHT22;11508;50.856;4.380;2023-05-02T07:50:41;17.50;99.90
22682;DHT22;11508;50.856;4.380;2023-05-02T07:53:06;17.30;99.90
22682;DHT22;11508;50.856;4.380;2023-05-02T07:55:32;18.10;99.90
22682;DHT22;11508;50.856;4.380;2023-05-02T07:57:58;19.70;99.90
22682;DHT22;11508;50.856;4.380;2023-05-02T08:00:24;19.80;99.90
22682;DHT22;11508;50.856;4.380;2023-05-02T08:02:50;19.10;8.50
22682;DHT22;11508;50.856;4.380;2023-05-02T08:05:16;20.70;18.70
22682;DHT22;11508;50.856;4.380;2023-05-02T08:07:43;21.30;1.00
22682;DHT22;11508;50.856;4.380;2023-05-02T08:10:09;24.20;1.00
22682;DHT22;11508;50.856;4.380;2023-05-02T08:12:39;23.80;1.00
22682;DHT22;11508;50.856;4.380;2023-05-02T08:15:10;23.60;99.90
22682;DHT22;11508;50.856;4.380;2023-05-02T08:17:36;21.80;1.00
22682;DHT22;11508;50.856;4.380;2023-05-02T08:20:02;22.70;1.00
22682;DHT22;11508;50.856;4.380;2023-05-02T08:22:27;22.70;99.90
22682;DHT22;11508;50.856;4.380;2023-05-02T08:24:53;23.50;99.90
22682;DHT22;11508;50.856;4.380;2023-05-02T08:27:19;22.60;99.90
22682;DHT22;11508;50.856;4.380;2023-05-02T08:29:45;22.30;1.00
22682;DHT22;11508;50.856;4.380;2023-05-02T08:32:10;21.20;99.90
22682;DHT22;11508;50.856;4.380;2023-05-02T08:34:36;20.50;99.90
22682;DHT22;11508;50.856;4.380;2023-05-02T08:37:09;20.00;1.00
22682;DHT22;11508;50.856;4.380;2023-05-02T08:39:36;19.90;99.90
22682;DHT22;11508;50.856;4.380;2023-05-02T08:42:06;22.10;99.90
22682;DHT22;11508;50.856;4.380;2023-05-02T08:44:32;22.00;93.50
22682;DHT22;11508;50.856;4.380;2023-05-02T08:46:59;22.00;1.00
22682;DHT22;11508;50.856;4.380;2023-05-02T08:49:25;21.60;1.00
22682;DHT22;11508;50.856;4.380;2023-05-02T08:51:54;18.80;99.90
22682;DHT22;11508;50.856;4.380;2023-05-02T08:54:21;18.10;99.90
22682;DHT22;11508;50.856;4.380;2023-05-02T08:56:54;19.20;1.00
22682;DHT22;11508;50.856;4.380;2023-05-02T08:59:20;19.70;99.90
22682;DHT22;11508;50.856;4.380;2023-05-02T09:04:14;20.50;99.90
22682;DHT22;11508;50.856;4.380;2023-05-02T09:06:39;20.10;1.00
22682;DHT22;11508;50.856;4.380;2023-05-02T09:09:05;19.50;99.90
22682;DHT22;11508;50.856;4.380;2023-05-02T09:11:32;18.90;99.90
22682;DHT22;11508;50.856;4.380;2023-05-02T09:13:58;20.10;99.90
22682;DHT22;11508;50.856;4.380;2023-05-02T09:16:28;20.10;99.90
22682;DHT22;11508;50.856;4.380;2023-05-02T09:18:56;21.50;99.90
22682;DHT22;11508;50.856;4.380;2023-05-02T09:23:56;23.10;99.90
22682;DHT22;11508;50.856;4.380;2023-05-02T09:26:27;23.50;99.90
22682;DHT22;11508;50.856;4.380;2023-05-02T09:28:59;22.80;1.00
22682;DHT22;11508;50.856;4.380;2023-05-02T09:31:30;23.90;1.00
22682;DHT22;11508;50.856;4.380;2023-05-02T09:36:40;20.40;99.90
22682;DHT22;11508;50.856;4.380;2023-05-02T09:39:12;20.30;99.90
22682;DHT22;11508;50.856;4.380;2023-05-02T09:41:46;21.10;99.90
22682;DHT22;11508;50.856;4.380;2023-05-02T09:44:14;22.10;99.90
22682;DHT22;11508;50.856;4.380;2023-05-02T09:46:46;21.30;92.10
22682;DHT22;11508;50.856;4.380;2023-05-02T09:49:12;20.30;99.90
22682;DHT22;11508;50.856;4.380;2023-05-02T09:51:39;22.20;99.90
22682;DHT22;11508;50.856;4.380;2023-05-02T09:54:05;23.30;27.10
22682;DHT22;11508;50.856;4.380;2023-05-02T09:56:50;24.50;1.00
22682;DHT22;11508;50.856;4.380;2023-05-02T09:59:16;25.20;21.40
22682;DHT22;11508;50.856;4.380;2023-05-02T10:01:42;25.90;1.00
22682;DHT22;11508;50.856;4.380;2023-05-02T10:04:14;25.80;50.80
22682;DHT22;11508;50.856;4.380;2023-05-02T10:06:43;26.50;99.90
22682;DHT22;11508;50.856;4.380;2023-05-02T10:09:09;26.10;99.90
22682;DHT22;11508;50.856;4.380;2023-05-02T10:11:38;25.60;13.30
22682;DHT22;11508;50.856;4.380;2023-05-02T10:14:08;25.70;99.90
22682;DHT22;11508;50.856;4.380;2023-05-02T10:16:36;24.00;4.50
22682;DHT22;11508;50.856;4.380;2023-05-02T10:19:08;24.00;1.00
22682;DHT22;11508;50.856;4.380;2023-05-02T10:21:35;24.60;1.00
22682;DHT22;11508;50.856;4.380;2023-05-02T10:24:02;25.70;1.00
22682;DHT22;11508;50.856;4.380;2023-05-02T10:26:28;26.50;1.00
22682;DHT22;11508;50.856;4.380;2023-05-02T10:28:55;27.00;1.00
22682;DHT22;11508;50.856;4.380;2023-05-02T10:31:21;27.20;99.90
22682;DHT22;11508;50.856;4.380;2023-05-02T10:33:50;26.60;99.90
22682;DHT22;11508;50.856;4.380;2023-05-02T10:36:22;26.40;1.00
22682;DHT22;11508;50.856;4.380;2023-05-02T10:38:48;26.70;41.30
22682;DHT22;11508;50.856;4.380;2023-05-02T10:41:18;25.80;55.00
22682;DHT22;11508;50.856;4.380;2023-05-02T10:43:46;26.40;21.40
22682;DHT22;11508;50.856;4.380;2023-05-02T10:46:46;25.50;99.90
22682;DHT22;11508;50.856;4.380;2023-05-02T10:49:12;24.00;99.90
22682;DHT22;11508;50.856;4.380;2023-05-02T10:51:42;22.70;1.00
22682;DHT22;11508;50.856;4.380;2023-05-02T10:57:02;21.40;99.90
22682;DHT22;11508;50.856;4.380;2023-05-02T11:01:58;22.10;99.90
22682;DHT22;11508;50.856;4.380;2023-05-02T11:11:50;23.70;1.00
22682;DHT22;11508;50.856;4.380;2023-05-02T11:19:23;21.60;99.90
22682;DHT22;11508;50.856;4.380;2023-05-02T11:21:49;21.60;99.90
22682;DHT22;11508;50.856;4.380;2023-05-02T11:24:40;22.20;99.90
22682;DHT22;11508;50.856;4.380;2023-05-02T11:30:07;22.00;99.90
22682;DHT22;11508;50.856;4.380;2023-05-02T11:35:18;22.90;99.90
22682;DHT22;11508;50.856;4.380;2023-05-02T11:38:02;23.10;99.90
22682;DHT22;11508;50.856;4.380;2023-05-02T11:40:29;22.90;99.90
22682;DHT22;11508;50.856;4.380;2023-05-02T11:42:57;21.50;99.90
22682;DHT22;11508;50.856;4.380;2023-05-02T11:45:35;22.10;99.90
22682;DHT22;11508;50.856;4.380;2023-05-02T11:48:06;21.90;99.90
22682;DHT22;11508;50.856;4.380;2023-05-02T11:50:52;21.30;99.90
22682;DHT22;11508;50.856;4.380;2023-05-02T11:53:25;20.40;99.90
22682;DHT22;11508;50.856;4.380;2023-05-02T11:56:03;20.60;99.90
22682;DHT22;11508;50.856;4.380;2023-05-02T11:58:31;20.20;99.90
22682;DHT22;11508;50.856;4.380;2023-05-02T12:00:59;20.20;99.90
22682;DHT22;11508;50.856;4.380;2023-05-02T12:03:35;20.30;99.90
22682;DHT22;11508;50.856;4.380;2023-05-02T12:06:10;19.80;99.90
22682;DHT22;11508;50.856;4.380;2023-05-02T12:08:36;20.00;99.90
22682;DHT22;11508;50.856;4.380;2023-05-02T12:11:02;20.20;99.90
22682;DHT22;11508;50.856;4.380;2023-05-02T12:13:29;21.60;99.90
22682;DHT22;11508;50.856;4.380;2023-05-02T12:15:55;22.60;99.90
22682;DHT22;11508;50.856;4.380;2023-05-02T12:18:22;22.80;99.90
22682;DHT22;11508;50.856;4.380;2023-05-02T12:20:50;22.30;99.90
22682;DHT22;11508;50.856;4.380;2023-05-02T12:23:18;20.50;99.90
22682;DHT22;11508;50.856;4.380;2023-05-02T12:25:44;20.90;99.90
22682;DHT22;11508;50.856;4.380;2023-05-02T12:28:09;21.90;99.90
22682;DHT22;11508;50.856;4.380;2023-05-02T12:30:37;21.30;99.90
22682;DHT22;11508;50.856;4.380;2023-05-02T12:33:03;21.00;99.90
22682;DHT22;11508;50.856;4.380;2023-05-02T12:35:30;21.30;99.90
22682;DHT22;11508;50.856;4.380;2023-05-02T12:38:12;21.00;99.90
22682;DHT22;11508;50.856;4.380;2023-05-02T12:40:49;20.30;99.90
22682;DHT22;11508;50.856;4.380;2023-05-02T12:43:15;21.20;99.90
22682;DHT22;11508;50.856;4.380;2023-05-02T12:45:41;21.90;99.90
22682;DHT22;11508;50.856;4.380;2023-05-02T12:48:24;21.50;99.90
22682;DHT22;11508;50.856;4.380;2023-05-02T12:50:51;21.20;99.90
22682;DHT22;11508;50.856;4.380;2023-05-02T12:53:32;20.70;99.90
22682;DHT22;11508;50.856;4.380;2023-05-02T12:56:02;21.20;99.90
22682;DHT22;11508;50.856;4.380;2023-05-02T12:58:28;21.40;99.90
22682;DHT22;11508;50.856;4.380;2023-05-02T13:00:54;21.70;99.90
22682;DHT22;11508;50.856;4.380;2023-05-02T13:03:20;21.80;99.90
22682;DHT22;11508;50.856;4.380;2023-05-02T13:05:46;21.60;99.90
22682;DHT22;11508;50.856;4.380;2023-05-02T13:08:12;21.40;99.90
22682;DHT22;11508;50.856;4.380;2023-05-02T13:10:38;19.90;99.90
22682;DHT22;11508;50.856;4.380;2023-05-02T13:13:03;19.80;99.90
22682;DHT22;11508;50.856;4.380;2023-05-02T13:15:29;20.20;99.90
22682;DHT22;11508;50.856;4.380;2023-05-02T13:17:55;19.60;99.90
22682;DHT22;11508;50.856;4.380;2023-05-02T13:20:20;19.30;99.90
22682;DHT22;11508;50.856;4.380;2023-05-02T13:22:46;19.50;99.90
22682;DHT22;11508;50.856;4.380;2023-05-02T13:25:12;20.50;99.90
22682;DHT22;11508;50.856;4.380;2023-05-02T13:27:38;21.30;99.90
22682;DHT22;11508;50.856;4.380;2023-05-02T13:30:06;21.60;99.90
22682;DHT22;11508;50.856;4.380;2023-05-02T13:32:33;21.70;99.90
22682;DHT22;11508;50.856;4.380;2023-05-02T13:34:59;21.50;99.90
22682;DHT22;11508;50.856;4.380;2023-05-02T13:37:25;21.20;99.90
22682;DHT22;11508;50.856;4.380;2023-05-02T13:39:51;20.90;99.90
22682;DHT22;11508;50.856;4.380;2023-05-02T13:42:16;20.80;99.90
22682;DHT22;11508;50.856;4.380;2023-05-02T13:44:42;20.40;99.90
22682;DHT22;11508;50.856;4.380;2023-05-02T13:47:08;20.40;99.90
22682;DHT22;11508;50.856;4.380;2023-05-02T13:49:33;18.10;99.90
22682;DHT22;11508;50.856;4.380;2023-05-02T13:51:59;18.00;99.90
22682;DHT22;11508;50.856;4.380;2023-05-02T13:59:17;18.20;99.90
22682;DHT22;11508;50.856;4.380;2023-05-02T14:01:44;17.90;1.00
22682;DHT22;11508;50.856;4.380;2023-05-02T14:04:10;17.70;1.00
22682;DHT22;11508;50.856;4.380;2023-05-02T14:06:36;17.80;99.90
22682;DHT22;11508;50.856;4.380;2023-05-02T14:09:02;18.00;99.90
22682;DHT22;11508;50.856;4.380;2023-05-02T14:13:53;18.00;1.00
22682;DHT22;11508;50.856;4.380;2023-05-02T14:16:21;18.10;1.00
22682;DHT22;11508;50.856;4.380;2023-05-02T14:18:49;18.00;71.60
22682;DHT22;11508;50.856;4.380;2023-05-02T14:21:15;17.90;1.00
22682;DHT22;11508;50.856;4.380;2023-05-02T14:23:41;17.60;14.20
22682;DHT22;11508;50.856;4.380;2023-05-02T14:26:07;17.30;1.00
22682;DHT22;11508;50.856;4.380;2023-05-02T14:28:33;17.60;1.00
22682;DHT22;11508;50.856;4.380;2023-05-02T14:31:00;17.90;1.00
22682;DHT22;11508;50.856;4.380;2023-05-02T14:33:25;17.80;11.80
22682;DHT22;11508;50.856;4.380;2023-05-02T14:35:51;17.80;38.90
22682;DHT22;11508;50.856;4.380;2023-05-02T14:38:17;17.90;1.00
22682;DHT22;11508;50.856;4.380;2023-05-02T14:40:42;17.80;99.90
22682;DHT22;11508;50.856;4.380;2023-05-02T14:43:08;17.80;40.90
22682;DHT22;11508;50.856;4.380;2023-05-02T14:48:02;17.80;31.30
22682;DHT22;11508;50.856;4.380;2023-05-02T14:50:28;17.60;1.00
22682;DHT22;11508;50.856;4.380;2023-05-02T14:52:53;17.30;1.00
22682;DHT22;11508;50.856;4.380;2023-05-02T14:55:19;17.40;1.00
22682;DHT22;11508;50.856;4.380;2023-05-02T14:57:45;17.80;1.00
22682;DHT22;11508;50.856;4.380;2023-05-02T15:00:11;17.90;1.00
22682;DHT22;11508;50.856;4.380;2023-05-02T15:02:37;17.80;47.30
22682;DHT22;11508;50.856;4.380;2023-05-02T15:05:04;17.60;27.80
22682;DHT22;11508;50.856;4.380;2023-05-02T15:07:38;17.40;1.00
22682;DHT22;11508;50.856;4.380;2023-05-02T15:10:04;17.00;99.90
22682;DHT22;11508;50.856;4.380;2023-05-02T15:12:30;17.40;1.00
22682;DHT22;11508;50.856;4.380;2023-05-02T15:14:55;17.10;1.00
22682;DHT22;11508;50.856;4.380;2023-05-02T15:17:21;17.20;1.00
22682;DHT22;11508;50.856;4.380;2023-05-02T15:19:47;17.50;1.00
22682;DHT22;11508;50.856;4.380;2023-05-02T15:22:12;17.60;1.00
22682;DHT22;11508;50.856;4.380;2023-05-02T15:24:40;17.40;1.00
22682;DHT22;11508;50.856;4.380;2023-05-02T15:27:05;17.20;1.00
22682;DHT22;11508;50.856;4.380;2023-05-02T15:29:33;16.70;1.00
22682;DHT22;11508;50.856;4.380;2023-05-02T15:31:59;16.40;43.50
22682;DHT22;11508;50.856;4.380;2023-05-02T15:34:25;16.30;1.00
22682;DHT22;11508;50.856;4.380;2023-05-02T15:36:51;16.60;1.00
22682;DHT22;11508;50.856;4.380;2023-05-02T15:39:17;17.10;40.00
22682;DHT22;11508;50.856;4.380;2023-05-02T15:46:39;17.50;99.90
22682;DHT22;11508;50.856;4.380;2023-05-02T15:49:11;17.60;99.90
22682;DHT22;11508;50.856;4.380;2023-05-02T15:51:36;17.70;99.90
22682;DHT22;11508;50.856;4.380;2023-05-02T15:54:02;17.60;99.90
22682;DHT22;11508;50.856;4.380;2023-05-02T15:56:28;17.60;99.90
22682;DHT22;11508;50.856;4.380;2023-05-02T15:58:53;17.30;99.90
22682;DHT22;11508;50.856;4.380;2023-05-02T16:01:19;17.50;99.90
22682;DHT22;11508;50.856;4.380;2023-05-02T16:03:45;16.80;99.90
22682;DHT22;11508;50.856;4.380;2023-05-02T16:06:11;17.00;99.90
22682;DHT22;11508;50.856;4.380;2023-05-02T16:08:37;17.00;99.90
22682;DHT22;11508;50.856;4.380;2023-05-02T16:11:03;17.20;1.00
22682;DHT22;11508;50.856;4.380;2023-05-02T16:13:28;17.20;1.00
22682;DHT22;11508;50.856;4.380;2023-05-02T16:15:54;16.60;1.00
22682;DHT22;11508;50.856;4.380;2023-05-02T16:18:20;16.60;1.00
22682;DHT22;11508;50.856;4.380;2023-05-02T16:20:47;17.10;1.00
22682;DHT22;11508;50.856;4.380;2023-05-02T16:23:14;17.20;1.00
22682;DHT22;11508;50.856;4.380;2023-05-02T16:25:40;17.20;1.00
22682;DHT22;11508;50.856;4.380;2023-05-02T16:28:05;17.20;99.90
22682;DHT22;11508;50.856;4.380;2023-05-02T16:30:34;17.30;99.90
22682;DHT22;11508;50.856;4.380;2023-05-02T16:33:01;17.40;99.90
22682;DHT22;11508;50.856;4.380;2023-05-02T16:35:28;17.50;99.90
22682;DHT22;11508;50.856;4.380;2023-05-02T16:37:54;17.50;6.60
22682;DHT22;11508;50.856;4.380;2023-05-02T16:40:19;17.50;99.90
22682;DHT22;11508;50.856;4.380;2023-05-02T16:42:45;17.70;1.00
22682;DHT22;11508;50.856;4.380;2023-05-02T16:45:11;17.80;1.00
22682;DHT22;11508;50.856;4.380;2023-05-02T16:47:37;17.60;1.00
22682;DHT22;11508;50.856;4.380;2023-05-02T16:50:03;17.40;1.00
22682;DHT22;11508;50.856;4.380;2023-05-02T16:52:29;17.00;1.00
22682;DHT22;11508;50.856;4.380;2023-05-02T16:54:54;17.30;1.00
22682;DHT22;11508;50.856;4.380;2023-05-02T16:57:21;17.20;1.00
22682;DHT22;11508;50.856;4.380;2023-05-02T16:59:49;17.30;1.00